createdAt,value
2023-01-02T00:01:17.377Z,23.00
2023-01-02T00:03:45.665Z,23.00
2023-01-02T00:06:13.871Z,22.90
2023-01-02T00:08:43.345Z,22.90
2023-01-02T00:11:11.456Z,22.90
2023-01-02T00:13:39.715Z,22.90
2023-01-02T00:16:09.873Z,22.90
2023-01-02T00:18:37.995Z,22.90
2023-01-02T00:21:06.821Z,22.90
2023-01-02T00:23:35.042Z,22.90
2023-01-02T00:26:04.835Z,22.90
2023-01-02T00:28:33.662Z,22.90
2023-01-02T00:31:07.203Z,22.80
2023-01-02T00:33:35.949Z,22.80
2023-01-02T00:36:07.028Z,22.80
2023-01-02T00:38:38.146Z,22.80
2023-01-02T00:41:08.455Z,22.80
2023-01-02T00:43:36.916Z,22.80
2023-01-02T00:46:11.268Z,22.80
2023-01-02T00:48:40.431Z,22.80
2023-01-02T00:51:08.954Z,22.80
2023-01-02T00:53:37.160Z,22.80
2023-01-02T00:56:07.385Z,22.80
2023-01-02T00:58:35.751Z,22.80
2023-01-02T01:01:04.104Z,22.80
2023-01-02T01:03:32.523Z,22.80
2023-01-02T01:06:00.617Z,22.80
2023-01-02T01:08:29.121Z,22.80
2023-01-02T01:10:57.223Z,22.90
2023-01-02T01:13:26.687Z,22.90
2023-01-02T01:15:54.890Z,22.90
2023-01-02T01:18:23.028Z,22.90
2023-01-02T01:20:52.260Z,22.90
2023-01-02T01:23:20.365Z,22.90
2023-01-02T01:25:48.529Z,22.90
2023-01-02T01:28:16.867Z,22.80
2023-01-02T01:30:46.300Z,22.80
2023-01-02T01:33:14.427Z,22.80
2023-01-02T01:35:42.533Z,22.80
2023-01-02T01:38:10.600Z,22.80
2023-01-02T01:40:39.613Z,22.80
2023-01-02T01:43:13.667Z,22.80
2023-01-02T01:45:44.399Z,22.80
2023-01-02T01:48:17.922Z,22.80
2023-01-02T01:50:46.376Z,22.70
2023-01-02T01:53:17.895Z,22.70
2023-01-02T01:55:51.981Z,22.70
2023-01-02T01:58:23.961Z,22.70
2023-01-02T02:00:52.974Z,22.70
2023-01-02T02:03:26.065Z,22.70
2023-01-02T02:05:55.411Z,22.70
2023-01-02T02:08:29.275Z,22.70
2023-01-02T02:11:00.110Z,22.70
2023-01-02T02:13:28.351Z,22.70
2023-01-02T02:16:03.877Z,22.70
2023-01-02T02:18:49.797Z,22.70
2023-01-02T02:21:32.156Z,22.70
2023-01-02T02:24:19.049Z,22.70
2023-01-02T02:27:14.034Z,22.70
2023-01-02T02:30:04.625Z,22.70
2023-01-02T02:33:18.407Z,22.70
2023-01-02T02:36:00.886Z,22.70
2023-01-02T02:38:48.072Z,22.80
2023-01-02T02:41:29.019Z,22.70
2023-01-02T02:44:07.631Z,22.80
2023-01-02T02:46:44.201Z,22.80
2023-01-02T02:49:22.415Z,22.70
2023-01-02T02:51:57.267Z,22.70
2023-01-02T02:54:32.403Z,22.70
2023-01-02T02:57:02.779Z,22.70
2023-01-02T02:59:31.592Z,22.70
2023-01-02T03:02:01.162Z,22.70
2023-01-02T03:04:29.376Z,22.70
2023-01-02T03:07:09.247Z,22.70
2023-01-02T03:09:49.089Z,22.70
2023-01-02T03:12:26.532Z,22.70
2023-01-02T03:15:02.891Z,22.70
2023-01-02T03:17:42.968Z,22.70
2023-01-02T03:20:16.470Z,22.60
2023-01-02T03:22:49.939Z,22.60
2023-01-02T03:25:19.956Z,22.60
2023-01-02T03:27:51.649Z,22.60
2023-01-02T03:30:21.891Z,22.60
2023-01-02T03:32:55.534Z,22.60
2023-01-02T03:35:27.958Z,22.60
2023-01-02T03:37:58.695Z,22.60
2023-01-02T03:40:29.341Z,22.60
2023-01-02T03:43:01.372Z,22.60
2023-01-02T03:45:32.440Z,22.60
2023-01-02T03:48:09.140Z,22.60
2023-01-02T03:50:45.957Z,22.60
2023-01-02T03:53:14.917Z,22.60
2023-01-02T03:55:47.926Z,22.70
2023-01-02T03:58:23.861Z,22.70
2023-01-02T04:00:57.348Z,22.70
2023-01-02T04:03:33.476Z,22.70
2023-01-02T04:06:05.740Z,22.70
2023-01-02T04:08:39.185Z,22.70
2023-01-02T04:11:08.897Z,22.70
2023-01-02T04:13:40.041Z,22.70
2023-01-02T04:16:17.227Z,22.60
2023-01-02T04:18:49.815Z,22.60
2023-01-02T04:21:22.852Z,22.60
2023-01-02T04:23:55.826Z,22.60
2023-01-02T04:26:28.346Z,22.60
2023-01-02T04:28:56.711Z,22.60
2023-01-02T04:31:29.718Z,22.60
2023-01-02T04:34:01.900Z,22.60
2023-01-02T04:36:30.174Z,22.60
2023-01-02T04:38:58.278Z,22.60
2023-01-02T04:41:27.915Z,22.60
2023-01-02T04:43:56.240Z,22.60
2023-01-02T04:46:25.003Z,22.60
2023-01-02T04:48:54.173Z,22.60
2023-01-02T04:51:24.165Z,22.60
2023-01-02T04:53:53.649Z,22.60
2023-01-02T04:56:22.486Z,22.60
2023-01-02T04:58:50.903Z,22.60
2023-01-02T05:01:21.500Z,22.60
2023-01-02T05:03:52.650Z,22.60
2023-01-02T05:06:21.321Z,22.60
2023-01-02T05:08:50.869Z,22.60
2023-01-02T05:11:21.031Z,22.60
2023-01-02T05:13:49.372Z,22.60
2023-01-02T05:16:17.539Z,22.60
2023-01-02T05:18:45.708Z,22.60
2023-01-02T05:21:29.059Z,22.60
2023-01-02T05:24:00.179Z,22.60
2023-01-02T05:26:28.562Z,22.60
2023-01-02T05:28:56.676Z,22.60
2023-01-02T05:31:24.847Z,22.60
2023-01-02T05:33:53.723Z,22.60
2023-01-02T05:36:22.786Z,22.60
2023-01-02T05:38:52.586Z,22.60
2023-01-02T05:41:23.212Z,22.60
2023-01-02T05:43:52.552Z,22.60
2023-01-02T05:46:21.995Z,22.50
2023-01-02T05:48:50.154Z,22.50
2023-01-02T05:51:20.531Z,22.60
2023-01-02T05:53:48.719Z,22.60
2023-01-02T05:56:18.266Z,22.60
2023-01-02T05:58:49.369Z,22.60
2023-01-02T06:01:19.466Z,22.60
2023-01-02T06:03:48.350Z,22.60
2023-01-02T06:06:18.094Z,22.60
2023-01-02T06:08:46.376Z,22.60
2023-01-02T06:11:14.654Z,22.60
2023-01-02T06:13:43.553Z,22.60
2023-01-02T06:16:13.077Z,22.60
2023-01-02T06:18:41.826Z,22.60
2023-01-02T06:21:12.097Z,22.60
2023-01-02T06:23:40.616Z,22.60
2023-01-02T06:26:10.482Z,22.50
2023-01-02T06:28:38.905Z,22.50
2023-01-02T06:31:09.962Z,22.50
2023-01-02T06:33:39.506Z,22.50
2023-01-02T06:36:09.909Z,22.50
2023-01-02T06:38:38.667Z,22.50
2023-01-02T06:41:08.261Z,22.50
2023-01-02T06:43:38.232Z,22.50
2023-01-02T06:46:06.737Z,22.50
2023-01-02T06:48:35.692Z,22.40
2023-01-02T06:51:08.178Z,22.40
2023-01-02T06:53:37.195Z,22.40
2023-01-02T06:56:06.004Z,22.40
2023-01-02T06:58:35.873Z,22.40
2023-01-02T07:01:04.863Z,22.40
2023-01-02T07:03:33.301Z,22.40
2023-01-02T07:06:02.955Z,22.40
2023-01-02T07:08:33.430Z,22.40
2023-01-02T07:11:09.929Z,22.40
2023-01-02T07:13:38.291Z,22.40
2023-01-02T07:16:08.191Z,22.40
2023-01-02T07:18:37.091Z,22.40
2023-01-02T07:21:05.787Z,22.40
2023-01-02T07:23:35.803Z,22.50
2023-01-02T07:26:05.979Z,22.50
2023-01-02T07:28:35.258Z,22.50
2023-01-02T07:31:05.251Z,22.50
2023-01-02T07:33:33.957Z,22.50
2023-01-02T07:36:03.335Z,22.50
2023-01-02T07:38:32.304Z,22.60
2023-01-02T07:41:02.045Z,22.60
2023-01-02T07:43:30.161Z,22.50
2023-01-02T07:46:04.107Z,22.50
2023-01-02T07:48:32.613Z,22.50
2023-01-02T07:51:02.422Z,22.50
2023-01-02T07:53:30.760Z,22.50
2023-01-02T07:56:01.884Z,22.50
2023-01-02T07:58:30.141Z,22.50
2023-01-02T08:01:04.923Z,22.50
2023-01-02T08:03:33.489Z,22.50
2023-01-02T08:06:05.999Z,22.50
2023-01-02T08:08:34.461Z,22.50
2023-01-02T08:11:07.079Z,22.50
2023-01-02T08:13:36.202Z,22.50
2023-01-02T08:16:09.089Z,22.50
2023-01-02T08:18:37.309Z,22.40
2023-01-02T08:21:06.536Z,22.40
2023-01-02T08:23:36.724Z,22.40
2023-01-02T08:26:08.089Z,22.40
2023-01-02T08:28:37.326Z,22.40
2023-01-02T08:31:11.203Z,22.40
2023-01-02T08:33:39.536Z,22.40
2023-01-02T08:36:08.484Z,22.40
2023-01-02T08:38:36.595Z,22.40
2023-01-02T08:41:05.399Z,22.40
2023-01-02T08:43:36.805Z,22.40
2023-01-02T08:46:06.459Z,22.40
2023-01-02T08:48:35.009Z,22.50
2023-01-02T08:51:03.544Z,22.50
2023-01-02T08:53:31.793Z,22.50
2023-01-02T08:56:18.194Z,22.60
2023-01-02T08:58:52.828Z,22.60
2023-01-02T09:01:22.268Z,22.60
2023-01-02T09:03:50.844Z,22.60
2023-01-02T09:06:22.026Z,22.60
2023-01-02T09:08:52.301Z,22.60
2023-01-02T09:11:23.823Z,22.60
2023-01-02T09:13:54.100Z,22.60
2023-01-02T09:16:22.307Z,22.60
2023-01-02T09:18:51.266Z,22.60
2023-01-02T09:21:19.891Z,22.50
2023-01-02T09:23:48.126Z,22.50
2023-01-02T09:26:16.798Z,22.50
2023-01-02T09:28:45.142Z,22.50
2023-01-02T09:31:16.358Z,22.50
2023-01-02T09:33:45.993Z,22.50
2023-01-02T09:36:16.403Z,22.40
2023-01-02T09:38:44.675Z,22.40
2023-01-02T09:41:27.520Z,22.40
2023-01-02T09:43:59.468Z,22.40
2023-01-02T09:46:38.236Z,22.40
2023-01-02T09:49:07.201Z,22.40
2023-01-02T09:51:36.489Z,22.40
2023-01-02T09:54:05.134Z,22.40
2023-01-02T09:56:39.583Z,22.40
2023-01-02T09:59:14.213Z,22.30
2023-01-02T10:01:55.857Z,22.30
2023-01-02T10:04:37.784Z,22.40
2023-01-02T10:07:11.597Z,22.40
2023-01-02T10:09:51.849Z,22.40
2023-01-02T10:12:28.710Z,22.40
2023-01-02T10:15:00.262Z,22.40
2023-01-02T10:17:34.540Z,22.50
2023-01-02T10:20:07.491Z,22.50
2023-01-02T10:22:39.973Z,22.50
2023-01-02T10:25:15.745Z,22.60
2023-01-02T10:27:51.110Z,22.60
2023-01-02T10:30:22.453Z,22.60
2023-01-02T10:32:58.324Z,22.60
2023-01-02T10:35:37.875Z,22.60
2023-01-02T10:38:06.405Z,22.60
2023-01-02T10:40:34.916Z,22.50
2023-01-02T10:43:03.197Z,22.50
2023-01-02T10:45:31.617Z,22.50
2023-01-02T10:48:01.119Z,22.50
2023-01-02T10:50:33.010Z,22.50
2023-01-02T10:53:09.400Z,22.50
2023-01-02T10:55:40.426Z,22.50
2023-01-02T10:58:17.590Z,22.50
2023-01-02T11:00:45.795Z,22.40
2023-01-02T11:03:18.930Z,22.40
2023-01-02T11:05:50.069Z,22.40
2023-01-02T11:08:21.756Z,22.40
2023-01-02T11:10:51.103Z,22.40
2023-01-02T11:13:21.707Z,22.40
2023-01-02T11:15:53.105Z,22.40
2023-01-02T11:18:26.067Z,22.40
2023-01-02T11:21:00.091Z,22.40
2023-01-02T11:23:28.317Z,22.50
2023-01-02T11:25:56.563Z,22.50
2023-01-02T11:28:28.228Z,22.50
2023-01-02T11:31:03.931Z,22.50
2023-01-02T11:33:35.335Z,22.50
2023-01-02T11:36:17.412Z,22.50
2023-01-02T11:38:47.764Z,22.60
2023-01-02T11:41:49.140Z,22.60
2023-01-02T11:44:22.129Z,22.70
2023-01-02T11:46:51.819Z,22.70
2023-01-02T11:49:24.927Z,22.80
2023-01-02T11:51:57.862Z,22.80
2023-01-02T11:54:35.827Z,22.90
2023-01-02T11:57:05.151Z,22.90
2023-01-02T11:59:41.275Z,23.00
2023-01-02T12:02:16.507Z,23.00
2023-01-02T12:04:46.040Z,23.10
2023-01-02T12:07:34.767Z,23.10
2023-01-02T12:10:15.695Z,23.20
2023-01-02T12:12:53.242Z,23.20
2023-01-02T12:15:41.880Z,23.20
2023-01-02T12:18:19.507Z,23.30
2023-01-02T12:20:56.779Z,23.30
2023-01-02T12:23:37.704Z,23.30
2023-01-02T12:26:11.596Z,23.30
2023-01-02T12:29:12.338Z,23.30
2023-01-02T12:31:57.185Z,23.30
2023-01-02T12:34:40.811Z,23.30
2023-01-02T12:37:23.927Z,23.30
2023-01-02T12:40:28.127Z,23.30
2023-01-02T12:43:18.527Z,23.30
2023-01-02T12:45:55.536Z,23.30
2023-01-02T12:48:47.231Z,23.30
2023-01-02T12:51:20.858Z,23.30
2023-01-02T12:54:19.065Z,23.40
2023-01-02T12:56:56.631Z,23.40
2023-01-02T12:59:45.331Z,23.50
2023-01-02T13:02:23.149Z,23.50
2023-01-02T13:04:55.856Z,23.70
2023-01-02T13:07:31.126Z,23.80
2023-01-02T13:10:05.483Z,23.80
2023-01-02T13:12:37.200Z,23.90
2023-01-02T13:15:14.513Z,24.00
2023-01-02T13:17:51.581Z,24.00
2023-01-02T13:20:31.581Z,24.10
2023-01-02T13:23:06.246Z,24.10
2023-01-02T13:25:40.529Z,24.10
2023-01-02T13:28:13.104Z,24.10
2023-01-02T13:31:26.614Z,24.10
2023-01-02T13:33:50.810Z,24.20
2023-01-02T13:36:23.416Z,24.20
2023-01-02T13:38:54.527Z,24.20
2023-01-02T13:41:24.475Z,24.30
2023-01-02T13:43:55.895Z,24.30
2023-01-02T13:47:02.065Z,24.30
2023-01-02T13:49:21.372Z,24.40
2023-01-02T13:51:49.511Z,24.40
2023-01-02T13:54:21.005Z,24.40
2023-01-02T13:57:18.742Z,24.30
2023-01-02T13:59:58.607Z,24.30
2023-01-02T14:02:27.629Z,24.30
2023-01-02T14:04:55.939Z,24.30
2023-01-02T14:07:56.864Z,24.20
2023-01-02T14:10:34.736Z,24.20
2023-01-02T14:13:17.993Z,24.20
2023-01-02T14:16:28.649Z,24.10
2023-01-02T14:19:18.196Z,24.00
2023-01-02T14:21:50.008Z,24.00
2023-01-02T14:24:40.365Z,23.90
2023-01-02T14:27:21.164Z,23.80
2023-01-02T14:29:53.812Z,23.80
2023-01-02T14:32:25.318Z,23.80
2023-01-02T14:39:56.467Z,24.40
2023-01-02T14:42:46.955Z,24.10
2023-01-02T14:45:20.309Z,23.90
2023-01-02T14:47:53.885Z,23.80
2023-01-02T14:50:25.867Z,23.70
2023-01-02T14:53:03.314Z,23.70
2023-01-02T14:55:41.917Z,23.70
2023-01-02T14:58:19.390Z,23.60
2023-01-02T15:00:49.438Z,23.60
2023-01-02T15:03:28.386Z,23.60
2023-01-02T15:06:03.057Z,23.50
2023-01-02T15:08:42.600Z,23.50
2023-01-02T15:11:36.241Z,23.50
2023-01-02T15:14:06.333Z,23.40
2023-01-02T15:16:42.711Z,23.40
2023-01-02T15:19:19.424Z,23.40
2023-01-02T15:21:48.034Z,23.40
2023-01-02T15:24:26.662Z,23.30
2023-01-02T15:26:55.492Z,23.30
2023-01-02T15:29:27.017Z,23.30
2023-01-02T15:31:57.524Z,23.30
2023-01-02T15:34:28.419Z,23.30
2023-01-02T15:36:58.329Z,23.20
2023-01-02T15:39:34.163Z,23.20
2023-01-02T15:42:09.916Z,23.20
2023-01-02T15:44:59.300Z,23.20
2023-01-02T15:47:28.822Z,23.10
2023-01-02T15:49:58.590Z,23.10
2023-01-02T15:52:30.212Z,23.10
2023-01-02T15:55:01.796Z,23.10
2023-01-02T15:57:34.261Z,23.10
2023-01-02T16:00:02.638Z,23.10
2023-01-02T16:02:41.020Z,23.10
2023-01-02T16:05:11.818Z,23.10
2023-01-02T16:07:40.900Z,23.20
2023-01-02T16:10:19.335Z,23.20
2023-01-02T16:12:52.925Z,23.20
2023-01-02T16:15:23.762Z,23.20
2023-01-02T16:17:53.229Z,23.10
2023-01-02T16:20:23.267Z,23.10
2023-01-02T16:22:54.665Z,23.10
2023-01-02T16:25:27.075Z,23.10
2023-01-02T16:27:57.579Z,23.10
2023-01-02T16:30:32.658Z,23.10
2023-01-02T16:33:03.931Z,23.10
2023-01-02T16:35:34.842Z,23.10
2023-01-02T16:38:05.100Z,23.10
2023-01-02T16:41:01.647Z,23.10
2023-01-02T16:43:31.532Z,23.10
2023-01-02T16:46:01.043Z,23.00
2023-01-02T16:48:30.554Z,23.00
2023-01-02T16:50:59.671Z,23.00
2023-01-02T16:53:29.966Z,23.00
2023-01-02T16:55:59.874Z,23.00
2023-01-02T16:58:32.160Z,23.00
2023-01-02T17:01:00.328Z,23.00
2023-01-02T17:03:28.814Z,22.90
2023-01-02T17:06:01.540Z,22.90
2023-01-02T17:08:31.633Z,22.90
2023-01-02T17:11:01.462Z,22.90
2023-01-02T17:13:30.356Z,23.00
2023-01-02T17:15:59.345Z,23.00
2023-01-02T17:18:27.827Z,23.00
2023-01-02T17:20:55.964Z,23.00
2023-01-02T17:23:24.125Z,23.00
2023-01-02T17:25:52.215Z,23.00
2023-01-02T17:28:21.734Z,23.00
2023-01-02T17:30:50.674Z,23.00
2023-01-02T17:33:19.626Z,23.00
2023-01-02T17:35:47.896Z,23.00
2023-01-02T17:38:16.071Z,23.00
2023-01-02T17:40:44.491Z,23.00
2023-01-02T17:43:12.753Z,23.00
2023-01-02T17:45:43.666Z,23.00
2023-01-02T17:48:14.289Z,23.00
2023-01-02T17:50:45.421Z,23.00
2023-01-02T17:53:13.495Z,23.00
2023-01-02T17:55:41.931Z,23.00
2023-01-02T17:58:10.108Z,23.00
2023-01-02T18:00:38.208Z,23.00
2023-01-02T18:03:08.392Z,23.00
2023-01-02T18:05:36.723Z,23.00
2023-01-02T18:08:05.120Z,22.90
2023-01-02T18:10:35.885Z,22.90
2023-01-02T18:13:04.853Z,22.90
2023-01-02T18:15:33.001Z,22.90
2023-01-02T18:18:04.218Z,22.90
2023-01-02T18:20:33.667Z,22.90
2023-01-02T18:23:01.918Z,22.90
2023-01-02T18:25:31.021Z,22.90
2023-01-02T18:28:02.103Z,22.90
2023-01-02T18:30:30.308Z,22.90
2023-01-02T18:33:02.695Z,22.90
2023-01-02T18:38:29.943Z,22.80
2023-01-02T18:40:58.359Z,22.80
2023-01-02T18:43:29.682Z,22.80
2023-01-02T18:45:59.920Z,22.80
2023-01-02T18:48:28.375Z,22.80
2023-01-02T18:51:00.137Z,22.90
2023-01-02T18:53:31.331Z,22.90
2023-01-02T18:56:02.736Z,22.90
2023-01-02T18:58:40.827Z,22.90
2023-01-02T19:01:30.244Z,22.90
2023-01-02T19:04:27.402Z,22.90
2023-01-02T19:07:16.753Z,22.90
2023-01-02T19:09:44.939Z,22.90
2023-01-02T19:12:44.050Z,22.90
2023-01-02T19:15:37.639Z,22.90
2023-01-02T19:18:35.681Z,22.90
2023-01-02T19:21:18.641Z,22.90
2023-01-02T19:23:52.668Z,22.90
2023-01-02T19:26:28.097Z,22.90
2023-01-02T19:29:00.947Z,22.80
2023-01-02T19:31:41.580Z,22.80
2023-01-02T19:34:41.188Z,22.80
2023-01-02T19:37:25.046Z,22.80
2023-01-02T19:39:55.943Z,22.80
2023-01-02T19:42:26.327Z,22.80
2023-01-02T19:44:56.871Z,22.80
2023-01-02T19:47:26.571Z,22.80
2023-01-02T19:49:55.306Z,22.80
2023-01-02T19:52:24.447Z,22.80
2023-01-02T19:54:54.337Z,22.80
2023-01-02T19:57:24.056Z,22.80
2023-01-02T19:59:55.556Z,22.80
2023-01-02T20:02:24.975Z,22.80
2023-01-02T20:04:55.314Z,22.80
2023-01-02T20:07:25.086Z,22.80
2023-01-02T20:09:54.656Z,22.80
2023-01-02T20:12:34.449Z,22.80
2023-01-02T20:15:04.138Z,22.80
2023-01-02T20:17:32.516Z,22.80
2023-01-02T20:20:01.147Z,22.80
2023-01-02T20:22:29.647Z,22.90
2023-01-02T20:24:59.885Z,22.90
2023-01-02T20:27:28.325Z,22.90
2023-01-02T20:29:57.347Z,22.90
2023-01-02T20:32:26.504Z,22.90
2023-01-02T20:34:54.603Z,22.90
2023-01-02T20:37:22.967Z,22.90
2023-01-02T20:39:51.523Z,22.90
2023-01-02T20:42:21.443Z,22.90
2023-01-02T20:44:50.429Z,22.90
2023-01-02T20:47:20.095Z,22.80
2023-01-02T20:49:49.994Z,22.80
2023-01-02T20:52:19.182Z,22.80
2023-01-02T20:54:47.321Z,22.80
2023-01-02T20:57:15.540Z,22.80
2023-01-02T20:59:45.090Z,22.80
2023-01-02T21:02:13.298Z,22.80
2023-01-02T21:04:41.569Z,22.80
2023-01-02T21:07:09.691Z,22.80
2023-01-02T21:09:37.845Z,22.80
2023-01-02T21:12:26.091Z,22.80
2023-01-02T21:14:55.958Z,22.70
2023-01-02T21:17:24.159Z,22.70
2023-01-02T21:19:52.296Z,22.70
2023-01-02T21:22:20.437Z,22.70
2023-01-02T21:24:48.832Z,22.70
2023-01-02T21:27:16.977Z,22.70
2023-01-02T21:29:46.081Z,22.70
2023-01-02T21:32:15.631Z,22.70
2023-01-02T21:34:43.836Z,22.70
2023-01-02T21:37:12.008Z,22.70
2023-01-02T21:39:40.113Z,22.70
2023-01-02T21:42:17.149Z,22.80
2023-01-02T21:44:47.120Z,22.80
2023-01-02T21:47:18.648Z,22.80
2023-01-02T21:49:46.786Z,22.80
2023-01-02T21:52:15.231Z,22.80
2023-01-02T21:54:43.475Z,22.90
2023-01-02T21:57:11.765Z,22.90
2023-01-02T21:59:39.888Z,22.90
2023-01-02T22:02:08.571Z,22.90
2023-01-02T22:04:38.168Z,22.90
2023-01-02T22:07:31.211Z,22.80
2023-01-02T22:09:54.358Z,22.80
2023-01-02T22:12:22.513Z,22.80
2023-01-02T22:14:50.804Z,22.80
2023-01-02T22:17:18.977Z,22.80
2023-01-02T22:19:48.584Z,22.80
2023-01-02T22:22:16.794Z,22.80
2023-01-02T22:24:45.551Z,22.80
2023-01-02T22:27:15.756Z,22.80
2023-01-02T22:30:20.472Z,22.80
2023-01-02T22:32:34.795Z,22.70
2023-01-02T22:35:06.281Z,22.70
2023-01-02T22:37:34.829Z,22.70
2023-01-02T22:40:03.013Z,22.70
2023-01-02T22:43:01.438Z,22.70
2023-01-02T22:45:33.302Z,22.70
2023-01-02T22:48:05.525Z,22.70
2023-01-02T22:50:43.194Z,22.70
2023-01-02T22:53:19.006Z,22.70
2023-01-02T22:55:47.241Z,22.70
2023-01-02T22:58:15.425Z,22.70
2023-01-02T23:00:43.590Z,22.70
2023-01-02T23:03:14.326Z,22.70
2023-01-02T23:05:44.131Z,22.70
2023-01-02T23:08:14.190Z,22.70
2023-01-02T23:10:43.055Z,22.70
2023-01-02T23:13:11.190Z,22.70
2023-01-02T23:16:00.826Z,22.70
2023-01-02T23:18:50.272Z,22.80
2023-01-02T23:21:25.040Z,22.80
2023-01-02T23:23:53.839Z,22.80
2023-01-02T23:26:23.600Z,22.80
2023-01-02T23:29:08.359Z,22.80
2023-01-02T23:31:39.654Z,22.80
2023-01-02T23:34:08.162Z,22.80
2023-01-02T23:36:38.439Z,22.80
2023-01-02T23:39:08.183Z,22.80
2023-01-02T23:41:36.488Z,22.80
2023-01-02T23:44:05.331Z,22.80
2023-01-02T23:46:33.730Z,22.80
2023-01-02T23:49:02.234Z,22.80
2023-01-02T23:51:30.681Z,22.80
2023-01-02T23:54:00.725Z,22.80
2023-01-02T23:56:31.741Z,22.80
2023-01-02T23:59:02.173Z,22.70
